Accueil
METAR-TAF:

METAR-TAF

Aéroports :

Wajima, Japon

Aéroport de Noto

latitude: 37-17-36N, longitude: 136-57-44E, altitude: 219 m

Observation

Le bulletin a été fait il y a 13 heures et 1 minutes, à 10:00 UTC
Vent calme
Température 3°C
Humidité 93%
Pression 1018 hPa
Visibilité 10 km ou plus
Quelques nuages à une hauteur de 1000 ft
Nuages épars à une hauteur de 2000 ft
Nuages fragmentés à une hauteur de 4000 ft
averses à proximité

METAR: RJNW 201000Z 00000KT 9999 VCSH FEW010 SCT020 BKN040 03/02 Q1018

Heure: 08:01 (23:01 UTC)


TAF: absent

Observations et prévisions météorologiques de plus de 4000 aéroports (messages METAR et TAF).

Les stations disponibles sont représentées par des disques jaunes et rouges sur la carte.

Passer la souris dessus pour voir le nom de la station.

Cliquer dessus pour voir les observations et prévisions météorologiques.

Pour changer de carte: cliquez sur les boutons verts avec une croix noire pour zoomer, sur le bouton vert avec un tiret pour effectuer un zoom arrière, ou sur les flèches vertes pour les cartes adjacentes.


METAR-TAF: